Wenonah, Illinois
Current Conditions -  °F | °C
As of 7:55 PM on Sunday 21 Dec 2014 (Local Time) from KTAZ Reporting Station
Overcast Overcast  
Wind Chill: 29°   Ceiling: 3900
Heat Index: 36°   Visibility: 10mi
Dew Point: 30°   Wind: 8mph
Humidity: 81%   Direction: 140°SE
Pressure: 30.03"   Gusts: NA
Location:  39.3183°N, 89.2952°W
Report Text: KTAZ 220155Z AUTO 14007KT 10SM OVC039 02/M01 A3003 RMK AO2
Loading
Personal Weather Stations






























Interactive Weather Map New forecast layout! Learn more

10-Day Weather Forecast

Advertisements
Track Severe Weather on mobile